sensor_id;sensor_type;location;lat;lon;timestamp;pressure;altitude;pressure_sealevel;temperature;humidity
13836;BME280;6988;52.614;13.500;2023-07-30T00:01:34;54114.31;;;-143.77;85.71
13836;BME280;6988;52.614;13.500;2023-07-30T00:06:26;54097.91;;;-143.77;85.55
13836;BME280;6988;52.614;13.500;2023-07-30T00:11:18;54136.91;;;-143.77;85.88
13836;BME280;6988;52.614;13.500;2023-07-30T00:16:10;54108.16;;;-143.77;86.19
13836;BME280;6988;52.614;13.500;2023-07-30T00:21:03;54118.44;;;-143.77;86.50
13836;BME280;6988;52.614;13.500;2023-07-30T00:25:55;54163.56;;;-143.77;86.95
13836;BME280;6988;52.614;13.500;2023-07-30T00:30:47;54132.78;;;-143.77;87.39
13836;BME280;6988;52.614;13.500;2023-07-30T00:35:39;54134.84;;;-143.77;87.26
13836;BME280;6988;52.614;13.500;2023-07-30T00:40:32;54167.66;;;-143.77;87.43
13836;BME280;6988;52.614;13.500;2023-07-30T00:45:25;54104.06;;;-143.77;87.30
13836;BME280;6988;52.614;13.500;2023-07-30T00:50:19;54151.25;;;-143.77;87.43
13836;BME280;6988;52.614;13.500;2023-07-30T00:55:11;54124.59;;;-143.77;87.43
13836;BME280;6988;52.614;13.500;2023-07-30T01:00:07;54159.47;;;-143.77;87.00
13836;BME280;6988;52.614;13.500;2023-07-30T01:05:01;54145.09;;;-143.77;86.94
13836;BME280;6988;52.614;13.500;2023-07-30T01:09:54;54132.78;;;-143.77;86.97
13836;BME280;6988;52.614;13.500;2023-07-30T01:14:47;54192.28;;;-143.77;86.94
13836;BME280;6988;52.614;13.500;2023-07-30T01:19:41;54159.47;;;-143.77;86.58
13836;BME280;6988;52.614;13.500;2023-07-30T01:24:34;54138.94;;;-143.77;86.08
13836;BME280;6988;52.614;13.500;2023-07-30T01:29:33;54165.63;;;-143.77;85.44
13836;BME280;6988;52.614;13.500;2023-07-30T01:34:33;54151.25;;;-143.77;85.10
13836;BME280;6988;52.614;13.500;2023-07-30T01:39:27;54163.56;;;-143.77;85.18
13836;BME280;6988;52.614;13.500;2023-07-30T01:44:21;54145.09;;;-143.77;85.15
13836;BME280;6988;52.614;13.500;2023-07-30T01:49:12;54184.09;;;-143.77;85.40
13836;BME280;6988;52.614;13.500;2023-07-30T01:54:05;54159.47;;;-143.77;85.33
13836;BME280;6988;52.614;13.500;2023-07-30T01:58:57;54179.97;;;-143.77;85.12
13836;BME280;6988;52.614;13.500;2023-07-30T02:03:50;54175.88;;;-143.77;84.82
13836;BME280;6988;52.614;13.500;2023-07-30T02:08:42;54179.97;;;-143.77;84.31
13836;BME280;6988;52.614;13.500;2023-07-30T02:13:34;54175.88;;;-143.77;83.78
13836;BME280;6988;52.614;13.500;2023-07-30T02:18:26;54171.78;;;-143.77;83.72
13836;BME280;6988;52.614;13.500;2023-07-30T02:23:19;54184.09;;;-143.77;83.86
13836;BME280;6988;52.614;13.500;2023-07-30T02:28:11;54212.81;;;-143.77;84.10
13836;BME280;6988;52.614;13.500;2023-07-30T02:33:03;54184.09;;;-143.77;83.94
13836;BME280;6988;52.614;13.500;2023-07-30T02:37:55;54237.44;;;-143.77;84.20
13836;BME280;6988;52.614;13.500;2023-07-30T02:42:48;54196.41;;;-143.77;84.24
13836;BME280;6988;52.614;13.500;2023-07-30T02:47:40;54231.28;;;-143.77;84.22
13836;BME280;6988;52.614;13.500;2023-07-30T02:52:32;54221.03;;;-143.77;84.42
13836;BME280;6988;52.614;13.500;2023-07-30T02:57:23;54225.13;;;-143.77;84.68
13836;BME280;6988;52.614;13.500;2023-07-30T03:02:17;54204.59;;;-143.77;85.16
13836;BME280;6988;52.614;13.500;2023-07-30T03:07:09;54229.22;;;-143.77;85.52
13836;BME280;6988;52.614;13.500;2023-07-30T03:12:01;54208.72;;;-143.77;85.97
13836;BME280;6988;52.614;13.500;2023-07-30T03:16:54;54245.63;;;-143.77;86.20
13836;BME280;6988;52.614;13.500;2023-07-30T03:21:47;54210.75;;;-143.77;86.71
13836;BME280;6988;52.614;13.500;2023-07-30T03:26:39;54204.59;;;-143.77;86.75
13836;BME280;6988;52.614;13.500;2023-07-30T03:31:31;54221.03;;;-143.77;86.65
13836;BME280;6988;52.614;13.500;2023-07-30T03:36:25;54200.50;;;-143.77;86.78
13836;BME280;6988;52.614;13.500;2023-07-30T03:41:19;54208.72;;;-143.77;86.85
13836;BME280;6988;52.614;13.500;2023-07-30T03:46:10;54229.22;;;-143.77;86.71
13836;BME280;6988;52.614;13.500;2023-07-30T03:51:02;54225.13;;;-143.77;87.22
13836;BME280;6988;52.614;13.500;2023-07-30T03:55:54;54233.31;;;-143.77;87.15
13836;BME280;6988;52.614;13.500;2023-07-30T04:00:47;54229.22;;;-143.77;87.04
13836;BME280;6988;52.614;13.500;2023-07-30T04:05:39;54241.53;;;-143.77;86.79
13836;BME280;6988;52.614;13.500;2023-07-30T04:10:31;54223.06;;;-143.77;86.87
13836;BME280;6988;52.614;13.500;2023-07-30T04:15:23;54221.03;;;-143.77;87.25
13836;BME280;6988;52.614;13.500;2023-07-30T04:20:16;54221.03;;;-143.77;87.09
13836;BME280;6988;52.614;13.500;2023-07-30T04:25:09;54212.81;;;-143.77;87.03
13836;BME280;6988;52.614;13.500;2023-07-30T04:30:02;54190.25;;;-143.77;86.91
13836;BME280;6988;52.614;13.500;2023-07-30T04:34:54;54200.50;;;-143.77;87.17
13836;BME280;6988;52.614;13.500;2023-07-30T04:39:49;54229.22;;;-143.77;87.10
13836;BME280;6988;52.614;13.500;2023-07-30T04:44:41;54227.16;;;-143.77;87.18
13836;BME280;6988;52.614;13.500;2023-07-30T04:49:37;54169.72;;;-143.77;87.17
13836;BME280;6988;52.614;13.500;2023-07-30T04:54:31;54159.47;;;-143.77;86.85
13836;BME280;6988;52.614;13.500;2023-07-30T04:59:24;54188.19;;;-143.77;87.08
13836;BME280;6988;52.614;13.500;2023-07-30T05:04:16;54188.19;;;-143.77;87.10
13836;BME280;6988;52.614;13.500;2023-07-30T05:09:08;54188.19;;;-143.77;87.43
13836;BME280;6988;52.614;13.500;2023-07-30T05:14:02;54182.03;;;-143.77;87.23
13836;BME280;6988;52.614;13.500;2023-07-30T05:18:55;54145.09;;;-143.77;87.06
13836;BME280;6988;52.614;13.500;2023-07-30T05:23:47;54145.09;;;-143.77;86.67
13836;BME280;6988;52.614;13.500;2023-07-30T05:28:39;54155.38;;;-143.77;86.03
13836;BME280;6988;52.614;13.500;2023-07-30T05:33:31;54132.78;;;-143.77;85.84
13836;BME280;6988;52.614;13.500;2023-07-30T05:38:24;54093.81;;;-143.77;84.84
13836;BME280;6988;52.614;13.500;2023-07-30T05:43:16;54116.38;;;-143.77;82.35
13836;BME280;6988;52.614;13.500;2023-07-30T05:48:07;54114.31;;;-143.77;80.50
13836;BME280;6988;52.614;13.500;2023-07-30T05:53:00;54079.44;;;-143.77;80.70
13836;BME280;6988;52.614;13.500;2023-07-30T05:57:54;54089.72;;;-143.77;79.42
13836;BME280;6988;52.614;13.500;2023-07-30T06:02:46;54093.81;;;-143.77;78.67
13836;BME280;6988;52.614;13.500;2023-07-30T06:07:38;54058.94;;;-143.77;78.64
13836;BME280;6988;52.614;13.500;2023-07-30T06:12:30;54048.66;;;-143.77;78.27
13836;BME280;6988;52.614;13.500;2023-07-30T06:17:23;54102.00;;;-143.77;77.76
13836;BME280;6988;52.614;13.500;2023-07-30T06:22:15;54032.25;;;-143.77;77.39
13836;BME280;6988;52.614;13.500;2023-07-30T06:27:07;54026.09;;;-143.77;76.86
13836;BME280;6988;52.614;13.500;2023-07-30T06:32:00;54009.69;;;-143.77;76.54
13836;BME280;6988;52.614;13.500;2023-07-30T06:36:54;54009.69;;;-143.77;75.11
13836;BME280;6988;52.614;13.500;2023-07-30T06:41:46;54030.22;;;-143.77;74.82
13836;BME280;6988;52.614;13.500;2023-07-30T06:46:38;54048.66;;;-143.77;74.71
13836;BME280;6988;52.614;13.500;2023-07-30T06:51:30;53985.06;;;-143.77;74.39
13836;BME280;6988;52.614;13.500;2023-07-30T06:56:24;54017.91;;;-143.77;74.18
13836;BME280;6988;52.614;13.500;2023-07-30T07:01:16;54026.09;;;-143.77;74.78
13836;BME280;6988;52.614;13.500;2023-07-30T07:06:08;54060.97;;;-143.77;74.14
13836;BME280;6988;52.614;13.500;2023-07-30T07:10:59;54024.06;;;-143.77;73.80
13836;BME280;6988;52.614;13.500;2023-07-30T07:15:53;53917.38;;;-143.77;72.61
13836;BME280;6988;52.614;13.500;2023-07-30T07:20:47;53810.69;;;-143.77;71.77
13836;BME280;6988;52.614;13.500;2023-07-30T07:25:39;53878.38;;;-143.77;69.80
13836;BME280;6988;52.614;13.500;2023-07-30T07:30:34;53911.22;;;-143.77;70.09
13836;BME280;6988;52.614;13.500;2023-07-30T07:35:27;53880.44;;;-143.77;68.05
13836;BME280;6988;52.614;13.500;2023-07-30T07:40:19;53890.69;;;-143.77;67.50
13836;BME280;6988;52.614;13.500;2023-07-30T07:45:11;53919.41;;;-143.77;67.84
13836;BME280;6988;52.614;13.500;2023-07-30T07:50:03;53909.16;;;-143.77;68.50
13836;BME280;6988;52.614;13.500;2023-07-30T07:54:56;53820.94;;;-143.77;68.40
13836;BME280;6988;52.614;13.500;2023-07-30T07:59:49;53738.88;;;-143.77;68.20
13836;BME280;6988;52.614;13.500;2023-07-30T08:04:40;53708.09;;;-143.77;67.50
13836;BME280;6988;52.614;13.500;2023-07-30T08:09:32;53788.13;;;-143.77;65.91
13836;BME280;6988;52.614;13.500;2023-07-30T08:14:26;53835.31;;;-143.77;64.47
13836;BME280;6988;52.614;13.500;2023-07-30T08:19:18;53662.97;;;-143.77;65.17
13836;BME280;6988;52.614;13.500;2023-07-30T08:24:09;53642.47;;;-143.77;65.30
13836;BME280;6988;52.614;13.500;2023-07-30T08:29:01;53864.03;;;-143.77;65.05
13836;BME280;6988;52.614;13.500;2023-07-30T08:33:55;53654.75;;;-143.77;66.88
13836;BME280;6988;52.614;13.500;2023-07-30T08:38:46;53786.06;;;-143.77;64.63
13836;BME280;6988;52.614;13.500;2023-07-30T08:43:38;53691.69;;;-143.77;61.86
13836;BME280;6988;52.614;13.500;2023-07-30T08:48:30;53724.50;;;-143.77;61.04
13836;BME280;6988;52.614;13.500;2023-07-30T08:53:25;53548.09;;;-143.77;60.36
13836;BME280;6988;52.614;13.500;2023-07-30T08:58:17;53728.63;;;-143.77;59.31
13836;BME280;6988;52.614;13.500;2023-07-30T09:03:15;53591.16;;;-143.77;58.08
13836;BME280;6988;52.614;13.500;2023-07-30T09:08:09;53693.75;;;-143.77;57.19
13836;BME280;6988;52.614;13.500;2023-07-30T09:13:03;53498.84;;;-143.77;55.42
13836;BME280;6988;52.614;13.500;2023-07-30T09:17:55;53492.69;;;-143.77;53.52
13836;BME280;6988;52.614;13.500;2023-07-30T09:22:47;53720.41;;;-143.77;53.95
13836;BME280;6988;52.614;13.500;2023-07-30T09:27:40;53535.78;;;-143.77;52.28
13836;BME280;6988;52.614;13.500;2023-07-30T09:32:35;53543.97;;;-143.77;53.34
13836;BME280;6988;52.614;13.500;2023-07-30T09:37:27;53445.50;;;-143.77;52.24
13836;BME280;6988;52.614;13.500;2023-07-30T09:42:19;53453.72;;;-143.77;48.60
13836;BME280;6988;52.614;13.500;2023-07-30T09:47:11;53400.38;;;-143.77;51.88
13836;BME280;6988;52.614;13.500;2023-07-30T09:52:05;53383.97;;;-143.77;48.15
13836;BME280;6988;52.614;13.500;2023-07-30T09:56:57;53336.78;;;-143.77;45.32
13836;BME280;6988;52.614;13.500;2023-07-30T10:01:52;53482.44;;;-143.77;44.43
13836;BME280;6988;52.614;13.500;2023-07-30T10:06:52;53595.28;;;-143.77;47.31
13836;BME280;6988;52.614;13.500;2023-07-30T10:11:49;53365.50;;;-143.77;46.47
13836;BME280;6988;52.614;13.500;2023-07-30T10:16:51;53640.41;;;-143.77;47.52
13836;BME280;6988;52.614;13.500;2023-07-30T10:21:43;53677.34;;;-143.77;47.05
13836;BME280;6988;52.614;13.500;2023-07-30T10:26:35;53429.09;;;-143.77;49.89
13836;BME280;6988;52.614;13.500;2023-07-30T10:31:38;53396.28;;;-143.77;48.83
13836;BME280;6988;52.614;13.500;2023-07-30T10:36:32;53515.25;;;-143.77;47.14
13836;BME280;6988;52.614;13.500;2023-07-30T10:41:24;53572.72;;;-143.77;47.99
13836;BME280;6988;52.614;13.500;2023-07-30T10:46:18;53597.31;;;-143.77;48.00
13836;BME280;6988;52.614;13.500;2023-07-30T10:51:14;53560.41;;;-143.77;47.50
13836;BME280;6988;52.614;13.500;2023-07-30T10:56:08;53613.72;;;-143.77;48.15
13836;BME280;6988;52.614;13.500;2023-07-30T11:01:03;53648.59;;;-143.77;48.41
13836;BME280;6988;52.614;13.500;2023-07-30T11:05:55;53669.13;;;-143.77;48.87
13836;BME280;6988;52.614;13.500;2023-07-30T11:10:49;53759.41;;;-143.77;49.45
13836;BME280;6988;52.614;13.500;2023-07-30T11:15:42;53745.03;;;-143.77;49.47
13836;BME280;6988;52.614;13.500;2023-07-30T11:20:34;53671.19;;;-143.77;52.86
13836;BME280;6988;52.614;13.500;2023-07-30T11:25:27;53675.28;;;-143.77;50.15
13836;BME280;6988;52.614;13.500;2023-07-30T11:30:20;53437.31;;;-143.77;51.49
13836;BME280;6988;52.614;13.500;2023-07-30T11:35:15;53429.09;;;-143.77;49.73
13836;BME280;6988;52.614;13.500;2023-07-30T11:40:09;53500.91;;;-143.77;47.52
13836;BME280;6988;52.614;13.500;2023-07-30T11:45:22;53353.22;;;-143.77;43.52
13836;BME280;6988;52.614;13.500;2023-07-30T11:50:17;53328.59;;;-143.77;43.34
13836;BME280;6988;52.614;13.500;2023-07-30T11:55:10;53330.63;;;-143.77;42.03
13836;BME280;6988;52.614;13.500;2023-07-30T12:00:02;53318.34;;;-143.77;41.52
13836;BME280;6988;52.614;13.500;2023-07-30T12:05:05;53338.84;;;-143.77;41.29
13836;BME280;6988;52.614;13.500;2023-07-30T12:10:07;53330.63;;;-143.77;40.05
13836;BME280;6988;52.614;13.500;2023-07-30T12:15:00;53371.66;;;-143.77;40.99
13836;BME280;6988;52.614;13.500;2023-07-30T12:19:52;53515.25;;;-143.77;40.31
13836;BME280;6988;52.614;13.500;2023-07-30T12:24:47;53492.69;;;-143.77;40.66
13836;BME280;6988;52.614;13.500;2023-07-30T12:29:39;53490.66;;;-143.77;39.83
13836;BME280;6988;52.614;13.500;2023-07-30T12:34:31;53445.50;;;-143.77;41.34
13836;BME280;6988;52.614;13.500;2023-07-30T12:39:23;53400.38;;;-143.77;40.52
13836;BME280;6988;52.614;13.500;2023-07-30T12:44:16;53400.38;;;-143.77;39.35
13836;BME280;6988;52.614;13.500;2023-07-30T12:49:08;53568.59;;;-143.77;40.87
13836;BME280;6988;52.614;13.500;2023-07-30T12:54:00;53414.75;;;-143.77;40.38
13836;BME280;6988;52.614;13.500;2023-07-30T12:58:52;53529.63;;;-143.77;40.81
13836;BME280;6988;52.614;13.500;2023-07-30T13:03:45;53523.47;;;-143.77;40.96
13836;BME280;6988;52.614;13.500;2023-07-30T13:08:39;53527.56;;;-143.77;41.20
13836;BME280;6988;52.614;13.500;2023-07-30T13:13:31;53541.94;;;-143.77;41.95
13836;BME280;6988;52.614;13.500;2023-07-30T13:18:24;53543.97;;;-143.77;43.13
13836;BME280;6988;52.614;13.500;2023-07-30T13:23:17;53548.09;;;-143.77;42.22
13836;BME280;6988;52.614;13.500;2023-07-30T13:28:09;53546.03;;;-143.77;42.96
13836;BME280;6988;52.614;13.500;2023-07-30T13:33:01;53529.63;;;-143.77;42.40
13836;BME280;6988;52.614;13.500;2023-07-30T13:37:52;53556.28;;;-143.77;41.36
13836;BME280;6988;52.614;13.500;2023-07-30T13:42:46;53527.56;;;-143.77;43.18
13836;BME280;6988;52.614;13.500;2023-07-30T13:47:38;53597.31;;;-143.77;42.91
13836;BME280;6988;52.614;13.500;2023-07-30T13:52:31;53568.59;;;-143.77;42.66
13836;BME280;6988;52.614;13.500;2023-07-30T13:57:24;53601.44;;;-143.77;42.94
13836;BME280;6988;52.614;13.500;2023-07-30T14:02:17;53607.59;;;-143.77;42.62
13836;BME280;6988;52.614;13.500;2023-07-30T14:07:09;53595.28;;;-143.77;42.37
13836;BME280;6988;52.614;13.500;2023-07-30T14:12:01;53603.47;;;-143.77;41.69
13836;BME280;6988;52.614;13.500;2023-07-30T14:16:53;53607.59;;;-143.77;41.59
13836;BME280;6988;52.614;13.500;2023-07-30T14:21:46;53621.94;;;-143.77;41.95
13836;BME280;6988;52.614;13.500;2023-07-30T14:26:39;53646.56;;;-143.77;41.25
13836;BME280;6988;52.614;13.500;2023-07-30T14:31:31;53654.75;;;-143.77;42.26
13836;BME280;6988;52.614;13.500;2023-07-30T14:36:23;53650.66;;;-143.77;42.83
13836;BME280;6988;52.614;13.500;2023-07-30T14:41:16;53671.19;;;-143.77;42.37
13836;BME280;6988;52.614;13.500;2023-07-30T14:46:10;53704.00;;;-143.77;43.67
13836;BME280;6988;52.614;13.500;2023-07-30T14:51:04;53720.41;;;-143.77;44.34
13836;BME280;6988;52.614;13.500;2023-07-30T14:55:56;53740.94;;;-143.77;43.73
13836;BME280;6988;52.614;13.500;2023-07-30T15:00:50;53749.13;;;-143.77;44.63
13836;BME280;6988;52.614;13.500;2023-07-30T15:05:42;53749.13;;;-143.77;44.96
13836;BME280;6988;52.614;13.500;2023-07-30T15:10:34;53792.22;;;-143.77;45.91
13836;BME280;6988;52.614;13.500;2023-07-30T15:15:26;53808.63;;;-143.77;49.55
13836;BME280;6988;52.614;13.500;2023-07-30T15:20:20;53810.69;;;-143.77;52.70
13836;BME280;6988;52.614;13.500;2023-07-30T15:25:12;53806.56;;;-143.77;53.91
13836;BME280;6988;52.614;13.500;2023-07-30T15:30:05;53763.50;;;-143.77;54.11
13836;BME280;6988;52.614;13.500;2023-07-30T15:34:57;53786.06;;;-143.77;54.69
13836;BME280;6988;52.614;13.500;2023-07-30T15:39:50;53820.94;;;-143.77;54.71
13836;BME280;6988;52.614;13.500;2023-07-30T15:44:42;53769.66;;;-143.77;55.89
13836;BME280;6988;52.614;13.500;2023-07-30T15:49:34;53792.22;;;-143.77;56.51
13836;BME280;6988;52.614;13.500;2023-07-30T15:54:34;53720.41;;;-143.77;56.70
13836;BME280;6988;52.614;13.500;2023-07-30T15:59:27;53771.69;;;-143.77;55.68
13836;BME280;6988;52.614;13.500;2023-07-30T16:04:19;53788.13;;;-143.77;56.24
13836;BME280;6988;52.614;13.500;2023-07-30T16:09:11;53888.63;;;-143.77;57.14
13836;BME280;6988;52.614;13.500;2023-07-30T16:14:03;53831.19;;;-143.77;56.72
13836;BME280;6988;52.614;13.500;2023-07-30T16:18:56;53855.81;;;-143.77;56.53
13836;BME280;6988;52.614;13.500;2023-07-30T16:23:50;53843.50;;;-143.77;57.07
13836;BME280;6988;52.614;13.500;2023-07-30T16:28:42;53804.53;;;-143.77;56.80
13836;BME280;6988;52.614;13.500;2023-07-30T16:33:34;53839.41;;;-143.77;57.63
13836;BME280;6988;52.614;13.500;2023-07-30T16:38:28;53861.97;;;-143.77;58.57
13836;BME280;6988;52.614;13.500;2023-07-30T16:43:20;53851.72;;;-143.77;59.18
13836;BME280;6988;52.614;13.500;2023-07-30T16:48:11;53839.41;;;-143.77;59.13
13836;BME280;6988;52.614;13.500;2023-07-30T16:53:03;53868.13;;;-143.77;59.65
13836;BME280;6988;52.614;13.500;2023-07-30T16:57:56;53814.78;;;-143.77;59.70
13836;BME280;6988;52.614;13.500;2023-07-30T17:02:49;53853.75;;;-143.77;60.11
13836;BME280;6988;52.614;13.500;2023-07-30T17:07:41;53859.91;;;-143.77;59.80
13836;BME280;6988;52.614;13.500;2023-07-30T17:12:33;53878.38;;;-143.77;60.05
13836;BME280;6988;52.614;13.500;2023-07-30T17:17:26;53894.78;;;-143.77;60.38
13836;BME280;6988;52.614;13.500;2023-07-30T17:22:18;53870.19;;;-143.77;60.88
13836;BME280;6988;52.614;13.500;2023-07-30T17:27:09;53892.75;;;-143.77;61.21
13836;BME280;6988;52.614;13.500;2023-07-30T17:32:05;53937.88;;;-143.77;61.73
13836;BME280;6988;52.614;13.500;2023-07-30T17:36:59;53884.53;;;-143.77;61.57
13836;BME280;6988;52.614;13.500;2023-07-30T17:41:51;53892.75;;;-143.77;61.96
13836;BME280;6988;52.614;13.500;2023-07-30T17:46:42;53894.78;;;-143.77;62.42
13836;BME280;6988;52.614;13.500;2023-07-30T17:51:34;53937.88;;;-143.77;62.25
13836;BME280;6988;52.614;13.500;2023-07-30T17:56:28;53886.59;;;-143.77;62.13
13836;BME280;6988;52.614;13.500;2023-07-30T18:01:21;53876.34;;;-143.77;61.91
13836;BME280;6988;52.614;13.500;2023-07-30T18:06:12;53900.94;;;-143.77;61.72
13836;BME280;6988;52.614;13.500;2023-07-30T18:11:04;53864.03;;;-143.77;61.73
13836;BME280;6988;52.614;13.500;2023-07-30T18:15:57;54011.75;;;-143.77;61.64
13836;BME280;6988;52.614;13.500;2023-07-30T18:20:49;53900.94;;;-143.77;61.66
13836;BME280;6988;52.614;13.500;2023-07-30T18:25:41;53909.16;;;-143.77;61.82
13836;BME280;6988;52.614;13.500;2023-07-30T18:30:35;53917.38;;;-143.77;62.17
13836;BME280;6988;52.614;13.500;2023-07-30T18:35:30;53933.78;;;-143.77;62.65
13836;BME280;6988;52.614;13.500;2023-07-30T18:40:22;53931.72;;;-143.77;63.20
13836;BME280;6988;52.614;13.500;2023-07-30T18:45:14;53993.28;;;-143.77;63.87
13836;BME280;6988;52.614;13.500;2023-07-30T18:50:08;53911.22;;;-143.77;64.74
13836;BME280;6988;52.614;13.500;2023-07-30T18:55:01;53966.59;;;-143.77;65.88
13836;BME280;6988;52.614;13.500;2023-07-30T18:59:53;53948.13;;;-143.77;66.01
13836;BME280;6988;52.614;13.500;2023-07-30T19:04:44;53937.88;;;-143.77;66.32
13836;BME280;6988;52.614;13.500;2023-07-30T19:09:36;53941.97;;;-143.77;66.57
13836;BME280;6988;52.614;13.500;2023-07-30T19:14:30;53958.41;;;-143.77;67.08
13836;BME280;6988;52.614;13.500;2023-07-30T19:19:23;53939.94;;;-143.77;65.74
13836;BME280;6988;52.614;13.500;2023-07-30T19:24:15;53968.66;;;-143.77;69.15
13836;BME280;6988;52.614;13.500;2023-07-30T19:29:07;54019.94;;;-143.77;72.00
13836;BME280;6988;52.614;13.500;2023-07-30T19:34:07;54040.47;;;-143.77;73.90
13836;BME280;6988;52.614;13.500;2023-07-30T19:39:00;54065.09;;;-143.77;74.98
13836;BME280;6988;52.614;13.500;2023-07-30T19:43:52;54069.19;;;-143.77;75.71
13836;BME280;6988;52.614;13.500;2023-07-30T19:48:44;54052.78;;;-143.77;76.62
13836;BME280;6988;52.614;13.500;2023-07-30T19:53:37;54097.91;;;-143.77;77.45
13836;BME280;6988;52.614;13.500;2023-07-30T19:58:31;54067.13;;;-143.77;76.74
13836;BME280;6988;52.614;13.500;2023-07-30T20:03:24;54079.44;;;-143.77;77.26
13836;BME280;6988;52.614;13.500;2023-07-30T20:08:16;54063.03;;;-143.77;77.73
13836;BME280;6988;52.614;13.500;2023-07-30T20:13:09;54093.81;;;-143.77;77.24
13836;BME280;6988;52.614;13.500;2023-07-30T20:18:02;54065.09;;;-143.77;76.94
13836;BME280;6988;52.614;13.500;2023-07-30T20:22:56;54069.19;;;-143.77;77.03
13836;BME280;6988;52.614;13.500;2023-07-30T20:27:48;54042.50;;;-143.77;76.96
13836;BME280;6988;52.614;13.500;2023-07-30T20:32:41;54099.97;;;-143.77;76.93
13836;BME280;6988;52.614;13.500;2023-07-30T20:37:33;54104.06;;;-143.77;77.27
13836;BME280;6988;52.614;13.500;2023-07-30T20:42:25;54099.97;;;-143.77;77.42
13836;BME280;6988;52.614;13.500;2023-07-30T20:47:17;54099.97;;;-143.77;77.43
13836;BME280;6988;52.614;13.500;2023-07-30T20:52:11;54159.47;;;-143.77;77.97
13836;BME280;6988;52.614;13.500;2023-07-30T20:57:03;54118.44;;;-143.77;78.52
13836;BME280;6988;52.614;13.500;2023-07-30T21:01:55;54122.53;;;-143.77;78.52
13836;BME280;6988;52.614;13.500;2023-07-30T21:06:48;54128.69;;;-143.77;78.40
13836;BME280;6988;52.614;13.500;2023-07-30T21:11:41;54124.59;;;-143.77;78.41
13836;BME280;6988;52.614;13.500;2023-07-30T21:16:33;54110.22;;;-143.77;78.59
13836;BME280;6988;52.614;13.500;2023-07-30T21:21:25;54159.47;;;-143.77;78.82
13836;BME280;6988;52.614;13.500;2023-07-30T21:26:17;54136.91;;;-143.77;78.82
13836;BME280;6988;52.614;13.500;2023-07-30T21:31:10;54134.84;;;-143.77;79.01
13836;BME280;6988;52.614;13.500;2023-07-30T21:36:04;54145.09;;;-143.77;79.54
13836;BME280;6988;52.614;13.500;2023-07-30T21:40:56;54147.16;;;-143.77;79.99
13836;BME280;6988;52.614;13.500;2023-07-30T22:03:40;54163.56;;;-143.77;81.96
13836;BME280;6988;52.614;13.500;2023-07-30T22:08:35;54188.19;;;-143.77;81.62
13836;BME280;6988;52.614;13.500;2023-07-30T22:13:27;54167.66;;;-143.77;81.02
13836;BME280;6988;52.614;13.500;2023-07-30T22:18:18;54167.66;;;-143.77;80.83
13836;BME280;6988;52.614;13.500;2023-07-30T22:23:12;54186.13;;;-143.77;79.99
13836;BME280;6988;52.614;13.500;2023-07-30T22:28:04;54138.94;;;-143.77;79.73
13836;BME280;6988;52.614;13.500;2023-07-30T22:32:56;54157.41;;;-143.77;79.77
13836;BME280;6988;52.614;13.500;2023-07-30T22:37:48;54163.56;;;-143.77;79.41
13836;BME280;6988;52.614;13.500;2023-07-30T22:42:41;54212.81;;;-143.77;79.85
13836;BME280;6988;52.614;13.500;2023-07-30T22:47:32;54204.59;;;-143.77;80.21
13836;BME280;6988;52.614;13.500;2023-07-30T22:52:24;54212.81;;;-143.77;79.79
13836;BME280;6988;52.614;13.500;2023-07-30T22:57:16;54138.94;;;-143.77;79.82
13836;BME280;6988;52.614;13.500;2023-07-30T23:02:09;54188.19;;;-143.77;79.95
13836;BME280;6988;52.614;13.500;2023-07-30T23:07:01;54194.34;;;-143.77;80.01
13836;BME280;6988;52.614;13.500;2023-07-30T23:11:53;54175.88;;;-143.77;79.64
13836;BME280;6988;52.614;13.500;2023-07-30T23:16:46;54188.19;;;-143.77;79.61
13836;BME280;6988;52.614;13.500;2023-07-30T23:21:39;54184.09;;;-143.77;80.19
13836;BME280;6988;52.614;13.500;2023-07-30T23:26:30;54171.78;;;-143.77;80.78
13836;BME280;6988;52.614;13.500;2023-07-30T23:31:22;54200.50;;;-143.77;80.56
13836;BME280;6988;52.614;13.500;2023-07-30T23:36:16;54200.50;;;-143.77;80.41
13836;BME280;6988;52.614;13.500;2023-07-30T23:41:10;54200.50;;;-143.77;80.33
13836;BME280;6988;52.614;13.500;2023-07-30T23:46:02;54188.19;;;-143.77;80.65
13836;BME280;6988;52.614;13.500;2023-07-30T23:50:53;54188.19;;;-143.77;80.73
13836;BME280;6988;52.614;13.500;2023-07-30T23:55:45;54200.50;;;-143.77;80.63
